createdAt,value
2022-12-20T00:01:00.986Z,3.71
2022-12-20T00:06:03.270Z,3.66
2022-12-20T00:11:07.522Z,3.62
2022-12-20T00:16:14.507Z,3.57
2022-12-20T00:21:16.601Z,3.54
2022-12-20T00:26:20.455Z,3.56
2022-12-20T00:31:25.104Z,3.57
2022-12-20T00:36:30.953Z,3.58
2022-12-20T00:41:33.871Z,3.54
2022-12-20T00:46:35.954Z,3.59
2022-12-20T00:51:37.488Z,3.61
2022-12-20T00:56:39.465Z,3.61
2022-12-20T01:01:41.387Z,3.69
2022-12-20T01:06:43.324Z,3.73
2022-12-20T01:11:44.725Z,3.80
2022-12-20T01:16:47.419Z,3.78
2022-12-20T01:21:49.353Z,3.77
2022-12-20T01:26:50.937Z,3.81
2022-12-20T01:31:53.936Z,3.83
2022-12-20T01:36:55.807Z,3.79
2022-12-20T01:41:57.436Z,3.84
2022-12-20T01:46:58.930Z,3.92
2022-12-20T01:52:07.104Z,3.86
2022-12-20T01:57:12.729Z,3.83
2022-12-20T02:02:18.182Z,3.85
2022-12-20T02:07:26.954Z,3.92
2022-12-20T02:12:46.498Z,3.97
2022-12-20T02:18:16.498Z,3.89
2022-12-20T02:23:52.341Z,3.95
2022-12-20T02:29:07.701Z,3.91
2022-12-20T02:34:10.709Z,3.88
2022-12-20T02:39:16.279Z,3.85
2022-12-20T02:44:39.621Z,3.84
2022-12-20T02:49:42.881Z,3.69
2022-12-20T02:54:44.428Z,3.83
2022-12-20T03:00:04.220Z,3.88
2022-12-20T03:05:06.166Z,3.91
2022-12-20T03:10:08.127Z,3.87
2022-12-20T03:15:10.124Z,3.85
2022-12-20T03:20:11.896Z,3.88
2022-12-20T03:25:13.431Z,3.94
2022-12-20T03:30:15.365Z,3.96
2022-12-20T03:35:16.854Z,3.96
2022-12-20T03:40:18.384Z,3.97
2022-12-20T03:45:19.860Z,4.00
2022-12-20T03:50:21.544Z,3.98
2022-12-20T03:55:23.056Z,4.07
2022-12-20T04:00:24.908Z,4.09
2022-12-20T04:05:26.349Z,4.05
2022-12-20T04:10:27.805Z,4.09
2022-12-20T04:15:29.500Z,4.17
2022-12-20T04:20:31.047Z,4.13
2022-12-20T04:25:32.574Z,4.15
2022-12-20T04:30:33.971Z,4.12
2022-12-20T04:35:36.515Z,4.13
2022-12-20T04:40:38.111Z,4.12
2022-12-20T04:45:39.551Z,4.15
2022-12-20T04:50:41.055Z,4.14
2022-12-20T04:55:42.640Z,4.17
2022-12-20T05:00:44.244Z,4.16
2022-12-20T05:05:45.888Z,4.29
2022-12-20T05:10:48.288Z,4.31
2022-12-20T05:15:54.415Z,4.29
2022-12-20T05:21:19.134Z,4.34
2022-12-20T05:26:20.938Z,4.32
2022-12-20T05:31:22.492Z,4.32
2022-12-20T05:36:24.412Z,4.34
2022-12-20T05:41:25.875Z,4.39
2022-12-20T05:46:27.306Z,4.46
2022-12-20T05:51:28.666Z,4.42
2022-12-20T05:56:30.045Z,4.42
2022-12-20T06:01:31.559Z,4.47
2022-12-20T06:06:33.098Z,4.45
2022-12-20T06:11:34.461Z,4.45
2022-12-20T06:16:36.746Z,4.43
2022-12-20T06:21:38.647Z,4.33
2022-12-20T06:26:40.171Z,4.28
2022-12-20T06:31:41.755Z,4.24
2022-12-20T06:36:43.242Z,4.24
2022-12-20T06:41:44.828Z,4.23
2022-12-20T06:46:46.380Z,4.25
2022-12-20T06:51:48.913Z,4.34
2022-12-20T06:56:50.503Z,4.44
2022-12-20T07:01:52.080Z,4.45
2022-12-20T07:06:53.837Z,4.53
2022-12-20T07:11:58.071Z,4.55
2022-12-20T07:16:59.795Z,4.54
2022-12-20T07:22:01.692Z,4.65
2022-12-20T07:27:03.065Z,4.69
2022-12-20T07:32:04.807Z,4.73
2022-12-20T07:37:06.267Z,4.71
2022-12-20T07:42:09.218Z,4.83
2022-12-20T07:47:11.459Z,4.86
2022-12-20T07:52:14.720Z,4.84
2022-12-20T07:57:22.842Z,4.85
2022-12-20T08:02:31.502Z,4.88
2022-12-20T08:07:33.351Z,4.90
2022-12-20T08:12:34.940Z,4.92
2022-12-20T08:17:38.113Z,4.93
2022-12-20T08:22:39.477Z,5.02
2022-12-20T08:27:42.034Z,5.16
2022-12-20T08:32:44.212Z,5.31
2022-12-20T08:37:45.974Z,5.49
2022-12-20T08:42:47.352Z,5.54
2022-12-20T08:47:49.003Z,5.42
2022-12-20T08:52:50.657Z,5.43
2022-12-20T08:57:52.849Z,5.40
2022-12-20T09:02:55.477Z,5.44
2022-12-20T09:07:56.961Z,5.47
2022-12-20T09:12:58.285Z,5.55
2022-12-20T09:18:00.585Z,5.63
2022-12-20T09:23:02.754Z,5.69
2022-12-20T09:28:07.006Z,5.75
2022-12-20T09:33:10.690Z,5.78
2022-12-20T09:38:12.368Z,5.85
2022-12-20T09:43:20.303Z,5.88
2022-12-20T09:48:38.407Z,5.97
2022-12-20T09:54:04.995Z,6.01
2022-12-20T09:59:11.788Z,5.99
2022-12-20T10:04:23.207Z,6.04
2022-12-20T10:09:47.968Z,6.08
2022-12-20T10:15:16.691Z,6.07
2022-12-20T10:20:41.791Z,6.02
2022-12-20T10:25:45.407Z,6.03
2022-12-20T10:30:46.910Z,6.09
2022-12-20T10:35:50.718Z,6.12
2022-12-20T10:41:20.874Z,6.17
2022-12-20T10:46:20.609Z,6.16
2022-12-20T10:51:22.772Z,6.16
2022-12-20T10:56:24.154Z,6.21
2022-12-20T11:01:36.156Z,6.25
2022-12-20T11:06:37.928Z,6.36
2022-12-20T11:11:39.445Z,6.46
2022-12-20T11:16:52.945Z,6.49
2022-12-20T11:22:12.203Z,6.49
2022-12-20T11:27:27.386Z,6.47
2022-12-20T11:32:43.090Z,6.60
2022-12-20T11:38:09.805Z,6.68
2022-12-20T11:43:29.864Z,6.75
2022-12-20T11:48:43.185Z,6.79
2022-12-20T11:53:57.511Z,6.81
2022-12-20T11:59:17.435Z,6.72
2022-12-20T12:04:26.614Z,6.70
2022-12-20T12:09:36.292Z,6.66
2022-12-20T12:15:02.050Z,6.64
2022-12-20T12:20:30.745Z,6.69
2022-12-20T12:25:32.192Z,6.78
2022-12-20T12:30:43.424Z,6.95
2022-12-20T12:36:20.528Z,7.00
2022-12-20T12:42:18.363Z,7.01
2022-12-20T12:47:25.158Z,7.01
2022-12-20T12:52:43.138Z,7.12
2022-12-20T12:57:58.527Z,7.12
2022-12-20T13:03:05.884Z,7.07
2022-12-20T13:08:17.851Z,7.11
2022-12-20T13:13:23.352Z,7.16
2022-12-20T13:18:25.677Z,7.43
2022-12-20T13:23:27.085Z,7.43
2022-12-20T13:28:28.524Z,7.42
2022-12-20T13:33:39.066Z,7.31
2022-12-20T13:38:54.288Z,7.28
2022-12-20T13:43:57.228Z,7.37
2022-12-20T13:49:03.642Z,7.44
2022-12-20T13:54:08.461Z,7.58
2022-12-20T13:59:19.172Z,7.50
2022-12-20T14:04:20.852Z,7.43
2022-12-20T14:09:29.813Z,7.43
2022-12-20T14:14:31.395Z,7.48
2022-12-20T14:19:32.956Z,7.48
2022-12-20T14:24:35.204Z,7.49
2022-12-20T14:29:36.814Z,7.43
2022-12-20T14:34:43.004Z,7.38
2022-12-20T14:40:09.765Z,7.29
2022-12-20T14:45:14.020Z,7.31
2022-12-20T14:50:22.550Z,7.34
2022-12-20T14:55:33.223Z,7.31
2022-12-20T15:00:34.982Z,7.26
2022-12-20T15:05:49.131Z,7.21
2022-12-20T15:10:53.480Z,7.22
2022-12-20T15:15:55.342Z,7.21
2022-12-20T15:21:06.684Z,7.18
2022-12-20T15:26:12.272Z,7.09
2022-12-20T15:31:16.430Z,7.04
2022-12-20T15:36:24.223Z,7.06
2022-12-20T15:41:28.748Z,7.04
2022-12-20T15:46:30.353Z,7.05
2022-12-20T15:51:36.833Z,6.93
2022-12-20T15:56:41.403Z,6.84
2022-12-20T16:01:42.932Z,6.77
2022-12-20T16:06:46.584Z,6.85
2022-12-20T16:11:48.965Z,6.84
2022-12-20T16:16:50.887Z,6.86
2022-12-20T16:21:52.782Z,6.86
2022-12-20T16:26:54.270Z,6.85
2022-12-20T16:31:55.793Z,6.84
2022-12-20T16:36:57.281Z,6.84
2022-12-20T16:41:58.696Z,6.84
2022-12-20T16:47:00.167Z,6.77
2022-12-20T16:52:02.520Z,6.85
2022-12-20T16:57:04.167Z,6.85
2022-12-20T17:02:22.301Z,6.85
2022-12-20T17:07:23.923Z,6.84
2022-12-20T17:12:25.442Z,6.81
2022-12-20T17:17:26.868Z,6.94
2022-12-20T17:22:29.502Z,6.93
2022-12-20T17:27:30.899Z,6.91
2022-12-20T17:32:32.603Z,6.87
2022-12-20T17:37:35.278Z,6.91
2022-12-20T17:42:36.772Z,6.87
2022-12-20T17:47:38.123Z,6.92
2022-12-20T17:52:39.574Z,6.89
2022-12-20T17:57:41.249Z,6.86
2022-12-20T18:02:42.792Z,6.85
2022-12-20T18:07:50.021Z,6.90
2022-12-20T18:12:51.590Z,6.93
2022-12-20T18:17:53.018Z,6.84
2022-12-20T18:22:54.483Z,6.83
2022-12-20T18:27:56.171Z,6.84
2022-12-20T18:32:57.848Z,6.79
2022-12-20T18:37:59.415Z,6.81
2022-12-20T18:43:05.795Z,6.81
2022-12-20T18:48:07.835Z,6.83
2022-12-20T18:53:09.686Z,6.81
2022-12-20T18:58:11.091Z,6.79
2022-12-20T19:03:16.157Z,6.76
2022-12-20T19:08:18.996Z,6.67
2022-12-20T19:13:20.416Z,6.60
2022-12-20T19:18:21.866Z,6.62
2022-12-20T19:23:23.533Z,6.65
2022-12-20T19:28:24.953Z,6.66
2022-12-20T19:33:26.638Z,6.64
2022-12-20T19:38:28.000Z,6.65
2022-12-20T19:43:30.158Z,6.64
2022-12-20T19:48:34.730Z,6.61
2022-12-20T19:53:37.229Z,6.64
2022-12-20T19:58:39.286Z,6.66
2022-12-20T20:03:40.951Z,6.66
2022-12-20T20:08:42.587Z,6.62
2022-12-20T20:13:44.199Z,6.62
2022-12-20T20:18:48.549Z,6.65
2022-12-20T20:23:51.931Z,6.65
2022-12-20T20:28:53.692Z,6.61
2022-12-20T20:33:56.765Z,6.57
2022-12-20T20:38:59.320Z,6.53
2022-12-20T20:44:00.723Z,6.51
2022-12-20T20:49:02.136Z,6.50
2022-12-20T20:54:05.296Z,6.48
2022-12-20T20:59:10.590Z,6.49
2022-12-20T21:04:16.711Z,6.47
2022-12-20T21:09:18.178Z,6.46
2022-12-20T21:14:36.513Z,6.44
2022-12-20T21:19:41.615Z,6.41
2022-12-20T21:24:43.044Z,6.40
2022-12-20T21:29:44.537Z,6.33
2022-12-20T21:34:46.081Z,6.29
2022-12-20T21:39:47.852Z,6.23
2022-12-20T21:44:49.426Z,6.26
2022-12-20T21:49:51.196Z,6.26
2022-12-20T21:54:52.622Z,6.28
2022-12-20T21:59:54.211Z,6.27
2022-12-20T22:04:55.615Z,6.21
2022-12-20T22:09:56.964Z,6.23
2022-12-20T22:14:58.343Z,6.19
2022-12-20T22:19:59.708Z,6.19
2022-12-20T22:25:01.037Z,6.19
2022-12-20T22:30:02.486Z,6.12
2022-12-20T22:35:04.307Z,6.18
2022-12-20T22:40:06.412Z,6.18
2022-12-20T22:45:08.342Z,6.22
2022-12-20T22:50:11.090Z,6.23
2022-12-20T22:55:12.740Z,6.25
2022-12-20T23:00:14.520Z,6.26
2022-12-20T23:05:15.950Z,6.30
2022-12-20T23:10:37.348Z,6.40
2022-12-20T23:15:41.367Z,6.50
2022-12-20T23:21:07.796Z,6.50
2022-12-20T23:26:15.683Z,6.48
2022-12-20T23:31:17.301Z,6.53
2022-12-20T23:36:19.508Z,6.53
2022-12-20T23:41:21.179Z,6.54
2022-12-20T23:46:23.063Z,6.51
2022-12-20T23:51:24.672Z,6.54
2022-12-20T23:56:26.042Z,6.55
